KDKK

Chautauqua County / Dunkirk Airport

Dunkirk, New York, USA
METAR KDKK 171626Z AUTO 21013G20KT 10SM BKN025 26/22 A2991 RMK AO2 T02610217 $
Observed Flight Rules
Aug-17 @ 16:26 UTC (26 minutes ago) Marginal Visual Flight Rules
Wind Visibility Clouds
210° at 13 knots
 Gusting to 20 knots
10 miles
  • Broken at 2,500' AGL
Temperatures Readings
Current 26°C / 79°F
Dewpoint 22°C / 72°F
Humidity 79%
Altimeter 29.91" Hg
Pressure 1013 hPa
Elevation 202
METAR KDKK 171626Z AUTO 21013G20KT 10SM BKN025 26/22 A2991 RMK AO2 T02610217 $
Observed Flight Rules
Aug-17 @ 16:26 UTC
(26 minutes ago)
MVFR
Wind Visibility
210° at 13 knots
 Gusting to 20 knots
10 miles
Clouds
  • Broken at 2,500' AGL
Temperature Dewpoint
26°C / 79°F 22°C / 72°F
Humidity Altimeter Pressure
79% 29.91" Hg 1013 hPa